Esmond, South Dakota
Current Conditions -  °F | °C
As of 2:55 PM on Sunday 23 Nov 2014 (Local Time) from KHON Reporting Station
Overcast Overcast  
Wind Chill: -2°   Ceiling: 3600
Heat Index:   Visibility: 10mi
Dew Point: -3°   Wind: 25mph
Humidity: 60%   Direction: 300°WNW
Pressure: 29.54"   Gusts: 39mph
Location:  44.3062°N, 97.8068°W
Report Text: KHON 232055Z AUTO 30022G34KT 10SM BKN036 OVC045 04/M03 A2954 RMK AO2 PK WND 31034/2050 SLP014 T00441028 56012
Loading
Personal Weather Stations






























Interactive Weather Map New forecast layout! Learn more

10-Day Weather Forecast

Advertisements
Track Severe Weather on mobile